Historyczne dane pomiarowe

Dodano dane terminowe – wersja testowa.

Dane z okresu 1951-2019

Wersja bazy: 1.34 [2019-03-16, lista zmian], aktualizacja planowana na 2019-04-15

Dane meteo z obszaru Polski uzyskane na podstawie danych udostępnionych przez Instytut Meteorologii i Gospodarki Wodnej – Państwowy Instytut Badawczy.

 

Wybierz Datę:    

       

TemperaturaWilgotnośćWiatrCiśnienieOpadyŚniegCzas trwania zjawisk
 Stacja t tx tn tng RH VA  wxwx mslp ppp RRR   cm mm wxwxwxwxwxwxwx
1987-08-14 14.8 20.9 4.4 4.0 64.8- 3.0 6.0---- 1.0------------
1987-08-13 11.4 17.1 4.2 3.0 73.0- 3.7 1.3---- 0.0------------
1987-08-12 11.5 17.7 5.1 3.5 71.0- 4.3 2.3---- 0.0------------
1987-08-11 13.7 18.3 11.3 9.5 67.5- 5.0 4.3---- 0.0------------
1987-08-10 15.4 17.9 13.5 13.1 77.5- 8.0 1.7---- 9.7------------
1987-08-09 15.4 22.4 7.0 5.5 58.8- 3.0 7.7---- 0.2------------
1987-08-08 14.3 19.4 8.4 6.5 70.0- 4.3 0.7---- 0.0------------
1987-08-07 10.9 15.9 5.0 3.0 76.8- 5.0 7.0---- 0.0------------
1987-08-06 11.7 16.3 9.8 8.6 77.8- 6.3 5.3---- 5.1------------
1987-08-05 13.3 17.1 10.3 10.1 78.8- 8.0 0.7---- 0.0------------
1987-08-04 14.6 18.1 10.4 9.5 86.8- 7.0 3.7---- 4.8------------
1987-08-03 15.3 19.7 10.8 9.4 73.0- 4.7 4.7---- 0.0------------
1987-08-02 15.2 17.3 12.5 12.0 70.3- 4.3 2.0---- 2.1------------
1987-08-01 15.9 22.4 10.6 9.8 68.3- 4.7 4.7---- 0.0------------
1987-07-31 16.4 21.3 14.0 14.0 62.3- 5.3 5.0---- 11.1------------
1987-07-30 17.3 22.4 10.6 9.2 61.8- 4.0 7.7---- 0.0------------
1987-07-29 13.7 18.5 10.3 10.0 74.0- 4.0 1.3---- 0.0------------
1987-07-28 13.8 16.9 11.2 10.0 82.3- 8.0 4.7---- 6.3------------
1987-07-27 13.8 19.1 9.3 8.0 63.8- 3.7 6.0---- 0.7------------
1987-07-26 15.0 20.9 11.8 11.1 94.5- 8.0 4.7---- 10.8------------
1987-07-25 19.0 23.0 15.4 15.0 90.5- 7.3 3.0---- 10.2------------
1987-07-24 20.7 26.8 17.7 15.7 81.0- 5.3 3.0---- 11.4------------
1987-07-23 20.5 27.0 13.8 12.5 80.8- 0.7 0.0---- 4.6------------
1987-07-22 20.1 26.4 13.8 12.0 83.8- 5.3 5.0---- 0.0------------
1987-07-21 20.7 26.4 13.8 12.5 79.8- 3.0 2.3---- 0.0------------
1987-07-20 21.5 26.5 17.8 15.8 81.3- 4.0 6.3---- 1.0------------
1987-07-19 23.9 31.6 17.2 15.5 71.5- 2.7 4.3---- 0.0------------
1987-07-18 23.7 29.1 19.2 18.5 75.5- 3.7 6.0---- 0.0------------
1987-07-17 21.7 28.4 16.2 14.5 67.3- 4.0 8.7---- 0.0------------
1987-07-16 20.1 27.5 10.6 9.8 65.5- 3.0 1.3---- 0.0------------
1987-07-15 15.6 22.0 7.0 5.7 73.3- 0.7 1.3---- 0.0------------
1987-07-14 16.9 20.7 12.4 11.0 67.0- 1.7 6.0---- 0.0------------
1987-07-13 19.2 24.5 15.3 14.5 79.5- 5.0 3.0---- 0.0------------
1987-07-12 20.8 26.4 14.8 11.0 54.5- 3.3 9.0---- 7.0------------
1987-07-11 16.3 23.4 7.2 6.1 60.8- 1.3 4.0---- 0.0------------
1987-07-10 15.2 18.6 12.7 12.3 70.5- 5.0 5.7---- 0.0------------
1987-07-09 20.8 27.1 15.1 14.5 66.0- 3.3 5.0---- 35.0------------
1987-07-08 20.4 27.2 11.5 9.1 44.3- 0.0 7.7---- 0.0------------
1987-07-07 16.0 25.1 6.7 6.6 57.0- 0.0 0.7---- 0.0------------
1987-07-06 15.9 21.1 9.4 7.0 69.0- 0.7 3.7---- 0.0------------
1987-07-05 15.5 18.7 13.4 13.0 80.0- 7.3 6.0---- 0.0------------
1987-07-04 18.8 23.0 13.5 12.1 64.8- 2.7 1.0---- 0.0------------
1987-07-03 18.7 22.4 15.6 14.5 78.0- 6.3 1.3---- 0.0------------
1987-07-02 20.4 26.6 17.1 16.1 90.3- 6.0 3.3---- 0.0------------
1987-07-01 24.4 29.5 17.0 15.1 66.3- 0.0 4.0---- 0.0------------
1987-06-30 21.1 27.7 12.8 11.8 72.8- 0.7 0.7---- 0.0------------
1987-06-29 20.2 24.8 16.0 15.2 73.5- 2.3 1.0---- 0.0------------
1987-06-28 19.0 24.4 14.2 12.6 76.8- 5.0 3.0---- 0.0------------
1987-06-27 19.4 25.2 16.8 15.5 69.0- 4.3 3.7---- 8.2------------
1987-06-26 15.7 21.9 7.0 5.1 66.8- 4.3 8.0---- 0.0------------
1987-06-25 15.4 19.4 12.7 11.0 76.8- 5.0 2.3---- 0.4------------
1987-06-24 16.3 19.9 11.6 9.6 70.3- 4.0 3.7---- 0.5------------
1987-06-23 15.6 19.3 12.3 10.0 80.3- 7.3 3.7---- 0.1------------
1987-06-22 15.6 21.5 12.1 10.5 83.3- 4.7 2.0---- 19.9------------
1987-06-21 16.0 22.0 7.0 5.0 68.5- 2.3 1.3---- 0.0------------
1987-06-20 15.2 25.3 5.2 4.0 69.3- 2.3 5.0---- 0.0------------
1987-06-19 11.4 16.1 8.3 6.2 69.5- 3.3 4.0---- 3.3------------
1987-06-18 10.9 17.2 5.3 3.0 79.3- 3.7 2.7---- 6.3------------
1987-06-17 11.2 14.5 9.7 9.5 76.5- 5.7 3.7---- 0.5------------
1987-06-16 17.4 21.3 12.0 11.5 66.0- 5.7 9.3---- 21.0------------
461.1 ms

 

Źródłem pochodzenia danych jest Instytut Meteorologii i Gospodarki Wodnej – Państwowy Instytut Badawczy. Dane Instytutu Meteorologii i Gospodarki Wodnej – Państwowego Instytutu Badawczego zostały przetworzone.

Dane źródłowe można odnaleźć na stronie https://dane.imgw.pl